AIQ3008 VTSP-VTBD
Flight info
| Callsign | AIQ3008 |
|---|---|
| Flight time | 1h 13m |
| Altitude | 33000 |
| Route | IGEVI1A IGEVI Y5 EGUBO Y99 HOTEL SABAI3A |
| Aircraft | A320/M-SDE3FGHIRWY/LB1 |
Departure
| Time | 2026-04-28 05:40 |
|---|---|
| Airport | Phuket International Airport (VTSP) |
Arrival
| Time | 2026-04-28 06:54 |
|---|---|
| Airport | Don Mueang International Airport (VTBD) |
| Time | Latitude | Longitude | Altitude | Speed | Heading |
|---|---|---|---|---|---|
| 2026-04-28 05:35 | 8.11063 | 98.30658 | 43 ft | 1 kts | 264° |
| 2026-04-28 05:37 | 8.11061 | 98.30635 | 48 ft | 9 kts | 264° |
| 2026-04-28 05:37 | 8.11055 | 98.30579 | 48 ft | 7 kts | 264° |
| 2026-04-28 05:37 | 8.11051 | 98.30532 | 48 ft | 6 kts | 264° |
| 2026-04-28 05:38 | 8.11044 | 98.30465 | 48 ft | 12 kts | 264° |
| 2026-04-28 05:38 | 8.11036 | 98.30389 | 48 ft | 10 kts | 264° |
| 2026-04-28 05:38 | 8.11074 | 98.30353 | 49 ft | 7 kts | 348° |
| 2026-04-28 05:38 | 8.11117 | 98.30349 | 49 ft | 5 kts | 356° |
| 2026-04-28 05:39 | 8.11177 | 98.30345 | 50 ft | 12 kts | 359° |
| 2026-04-28 05:39 | 8.11200 | 98.30380 | 49 ft | 4 kts | 86° |
| 2026-04-28 05:39 | 8.11201 | 98.30413 | 49 ft | 10 kts | 88° |
| 2026-04-28 05:39 | 8.11231 | 98.30720 | 47 ft | 80 kts | 84° |
| 2026-04-28 05:40 | 8.11303 | 98.31484 | 50 ft | 137 kts | 85° |
| 2026-04-28 05:40 | 8.11402 | 98.32571 | 278 ft | 163 kts | 84° |
| 2026-04-28 05:40 | 8.11500 | 98.33713 | 1033 ft | 163 kts | 85° |
| 2026-04-28 05:40 | 8.11592 | 98.34845 | 1753 ft | 164 kts | 85° |
| 2026-04-28 05:41 | 8.11707 | 98.36057 | 2085 ft | 185 kts | 85° |
| 2026-04-28 05:41 | 8.11833 | 98.37366 | 2355 ft | 207 kts | 85° |
| 2026-04-28 05:41 | 8.11974 | 98.38825 | 2634 ft | 231 kts | 85° |
| 2026-04-28 05:41 | 8.12138 | 98.40516 | 3017 ft | 254 kts | 84° |
| 2026-04-28 05:42 | 8.12314 | 98.42324 | 3686 ft | 262 kts | 84° |
| 2026-04-28 05:42 | 8.12490 | 98.44169 | 4525 ft | 266 kts | 84° |
| 2026-04-28 05:42 | 8.12667 | 98.46043 | 5364 ft | 269 kts | 84° |
| 2026-04-28 05:42 | 8.12844 | 98.47911 | 6167 ft | 273 kts | 84° |
| 2026-04-28 05:43 | 8.13024 | 98.49829 | 6932 ft | 276 kts | 84° |
| 2026-04-28 05:43 | 8.13206 | 98.51770 | 7691 ft | 280 kts | 84° |
| 2026-04-28 05:43 | 8.13391 | 98.53764 | 8477 ft | 283 kts | 84° |
| 2026-04-28 05:43 | 8.13575 | 98.55722 | 9222 ft | 286 kts | 84° |
| 2026-04-28 05:44 | 8.14030 | 98.57684 | 9928 ft | 290 kts | 66° |
| 2026-04-28 05:44 | 8.15096 | 98.59415 | 10300 ft | 307 kts | 47° |
| 2026-04-28 05:44 | 8.16832 | 98.60722 | 10773 ft | 319 kts | 26° |
| 2026-04-28 05:44 | 8.18984 | 98.61331 | 11391 ft | 326 kts | 6° |
| 2026-04-28 05:45 | 8.21271 | 98.61430 | 12035 ft | 331 kts | 3° |
| 2026-04-28 05:45 | 8.23584 | 98.61508 | 12701 ft | 334 kts | 3° |
| 2026-04-28 05:45 | 8.25921 | 98.61587 | 13355 ft | 338 kts | 3° |
| 2026-04-28 05:45 | 8.28284 | 98.61668 | 13957 ft | 341 kts | 3° |
| 2026-04-28 05:46 | 8.30670 | 98.61754 | 14520 ft | 345 kts | 4° |
| 2026-04-28 05:46 | 8.32911 | 98.61752 | 15039 ft | 349 kts | 355° |
| 2026-04-28 05:46 | 8.35298 | 98.61237 | 15587 ft | 355 kts | 341° |
| 2026-04-28 05:46 | 8.37529 | 98.60163 | 15857 ft | 370 kts | 328° |
| 2026-04-28 05:47 | 8.39559 | 98.58486 | 16052 ft | 384 kts | 318° |
| 2026-04-28 05:47 | 8.41500 | 98.56687 | 16470 ft | 390 kts | 318° |
| 2026-04-28 05:47 | 8.43522 | 98.54836 | 16968 ft | 394 kts | 319° |
| 2026-04-28 05:47 | 8.45574 | 98.52976 | 17489 ft | 398 kts | 319° |
| 2026-04-28 05:48 | 8.47641 | 98.51107 | 18013 ft | 401 kts | 319° |
| 2026-04-28 05:48 | 8.49683 | 98.49259 | 18469 ft | 404 kts | 319° |
| 2026-04-28 05:48 | 8.51782 | 98.47360 | 18940 ft | 406 kts | 319° |
| 2026-04-28 05:48 | 8.53894 | 98.45448 | 19424 ft | 408 kts | 319° |
| 2026-04-28 05:49 | 8.55295 | 98.44181 | 19737 ft | 410 kts | 320° |
| 2026-04-28 05:49 | 8.57631 | 98.42545 | 20188 ft | 411 kts | 333° |
| 2026-04-28 05:49 | 8.60280 | 98.41489 | 20663 ft | 411 kts | 347° |
| 2026-04-28 05:49 | 8.63102 | 98.41077 | 21136 ft | 410 kts | 0° |
| 2026-04-28 05:50 | 8.65942 | 98.41330 | 21599 ft | 410 kts | 13° |
| 2026-04-28 05:50 | 8.68652 | 98.42220 | 22055 ft | 411 kts | 24° |
| 2026-04-28 05:50 | 8.72128 | 98.43762 | 22660 ft | 413 kts | 24° |
| 2026-04-28 05:50 | 8.74762 | 98.44932 | 23079 ft | 415 kts | 24° |
| 2026-04-28 05:51 | 8.77415 | 98.46109 | 23496 ft | 417 kts | 24° |
| 2026-04-28 05:51 | 8.79129 | 98.46867 | 23716 ft | 419 kts | 24° |
| 2026-04-28 05:51 | 8.82669 | 98.48433 | 24137 ft | 421 kts | 24° |
| 2026-04-28 05:51 | 8.84454 | 98.49223 | 24367 ft | 423 kts | 24° |
| 2026-04-28 05:52 | 8.87155 | 98.50417 | 24668 ft | 425 kts | 24° |
| 2026-04-28 05:52 | 8.89835 | 98.51602 | 24980 ft | 427 kts | 24° |
| 2026-04-28 05:52 | 8.92562 | 98.52813 | 25299 ft | 429 kts | 24° |
| 2026-04-28 05:52 | 8.95303 | 98.54030 | 25600 ft | 431 kts | 24° |
| 2026-04-28 05:53 | 8.98053 | 98.55252 | 25901 ft | 433 kts | 24° |
| 2026-04-28 05:53 | 9.00755 | 98.56455 | 26195 ft | 434 kts | 24° |
| 2026-04-28 05:53 | 9.03533 | 98.57689 | 26482 ft | 436 kts | 24° |
| 2026-04-28 05:53 | 9.06318 | 98.58925 | 26753 ft | 438 kts | 23° |
| 2026-04-28 05:54 | 9.09111 | 98.60164 | 27039 ft | 440 kts | 23° |
| 2026-04-28 05:54 | 9.11862 | 98.61374 | 27307 ft | 442 kts | 23° |
| 2026-04-28 05:54 | 9.14685 | 98.62605 | 27589 ft | 443 kts | 23° |
| 2026-04-28 05:54 | 9.17489 | 98.63819 | 27866 ft | 445 kts | 22° |
| 2026-04-28 05:55 | 9.20338 | 98.65051 | 28124 ft | 447 kts | 22° |
| 2026-04-28 05:55 | 9.23203 | 98.66296 | 28380 ft | 449 kts | 22° |
| 2026-04-28 05:55 | 9.26076 | 98.67548 | 28628 ft | 450 kts | 22° |
| 2026-04-28 05:55 | 9.28958 | 98.68807 | 28869 ft | 452 kts | 22° |
| 2026-04-28 05:56 | 9.31852 | 98.70071 | 29100 ft | 454 kts | 22° |
| 2026-04-28 05:56 | 9.34756 | 98.71337 | 29330 ft | 455 kts | 22° |
| 2026-04-28 05:56 | 9.37667 | 98.72607 | 29554 ft | 457 kts | 22° |
| 2026-04-28 05:56 | 9.40594 | 98.73884 | 29775 ft | 458 kts | 22° |
| 2026-04-28 05:57 | 9.43523 | 98.75165 | 29982 ft | 460 kts | 22° |
| 2026-04-28 05:57 | 9.46209 | 98.76338 | 30150 ft | 461 kts | 22° |
| 2026-04-28 05:57 | 9.49289 | 98.77684 | 30342 ft | 462 kts | 22° |
| 2026-04-28 05:57 | 9.52200 | 98.78955 | 30563 ft | 462 kts | 22° |
| 2026-04-28 05:58 | 9.55145 | 98.80240 | 30824 ft | 460 kts | 22° |
| 2026-04-28 05:58 | 9.58074 | 98.81530 | 31077 ft | 460 kts | 23° |
| 2026-04-28 05:58 | 9.60984 | 98.82884 | 31322 ft | 459 kts | 24° |
| 2026-04-28 05:58 | 9.63862 | 98.84284 | 31577 ft | 459 kts | 25° |
| 2026-04-28 05:59 | 9.66721 | 98.85706 | 31835 ft | 458 kts | 25° |
| 2026-04-28 05:59 | 9.69581 | 98.87133 | 32094 ft | 457 kts | 25° |
| 2026-04-28 05:59 | 9.72439 | 98.88548 | 32348 ft | 457 kts | 25° |
| 2026-04-28 05:59 | 9.75298 | 98.89949 | 32605 ft | 456 kts | 24° |
| 2026-04-28 06:00 | 9.78163 | 98.91341 | 32808 ft | 456 kts | 24° |
| 2026-04-28 06:00 | 9.81018 | 98.92720 | 32864 ft | 452 kts | 24° |
| 2026-04-28 06:00 | 9.86636 | 98.95432 | 32860 ft | 449 kts | 24° |
| 2026-04-28 06:01 | 9.92269 | 98.98165 | 32862 ft | 449 kts | 24° |
| 2026-04-28 06:01 | 9.97903 | 99.00899 | 32859 ft | 449 kts | 24° |
| 2026-04-28 06:02 | 10.03535 | 99.03640 | 32855 ft | 449 kts | 24° |
| 2026-04-28 06:02 | 10.09172 | 99.06382 | 32852 ft | 449 kts | 24° |
| 2026-04-28 06:03 | 10.14810 | 99.09121 | 32852 ft | 449 kts | 24° |
| 2026-04-28 06:03 | 10.20445 | 99.11865 | 32857 ft | 449 kts | 24° |
| 2026-04-28 06:04 | 10.26084 | 99.14605 | 32859 ft | 450 kts | 24° |
| 2026-04-28 06:04 | 10.31687 | 99.17333 | 32854 ft | 449 kts | 24° |
| 2026-04-28 06:05 | 10.37325 | 99.20079 | 32852 ft | 449 kts | 24° |
| 2026-04-28 06:05 | 10.42963 | 99.22824 | 32855 ft | 449 kts | 24° |
| 2026-04-28 06:06 | 10.48602 | 99.25572 | 32859 ft | 450 kts | 24° |
| 2026-04-28 06:06 | 10.54244 | 99.28320 | 32871 ft | 450 kts | 24° |
| 2026-04-28 06:07 | 10.59893 | 99.31078 | 32877 ft | 450 kts | 24° |
| 2026-04-28 06:07 | 10.65500 | 99.33817 | 32856 ft | 451 kts | 24° |
| 2026-04-28 06:08 | 10.71075 | 99.36754 | 32855 ft | 453 kts | 32° |
| 2026-04-28 06:08 | 10.75880 | 99.40917 | 32855 ft | 455 kts | 40° |
| 2026-04-28 06:09 | 10.80564 | 99.45242 | 32852 ft | 455 kts | 40° |
| 2026-04-28 06:09 | 10.85268 | 99.49562 | 32854 ft | 456 kts | 40° |
| 2026-04-28 06:10 | 10.89974 | 99.53883 | 32855 ft | 456 kts | 40° |
| 2026-04-28 06:10 | 10.94682 | 99.58209 | 32854 ft | 456 kts | 40° |
| 2026-04-28 06:11 | 10.99385 | 99.62543 | 32855 ft | 456 kts | 40° |
| 2026-04-28 06:11 | 11.04021 | 99.66822 | 32855 ft | 457 kts | 40° |
| 2026-04-28 06:12 | 11.08698 | 99.71132 | 32850 ft | 457 kts | 40° |
| 2026-04-28 06:12 | 11.13419 | 99.75466 | 32851 ft | 457 kts | 40° |
| 2026-04-28 06:13 | 11.18109 | 99.79840 | 32848 ft | 457 kts | 40° |
| 2026-04-28 06:13 | 11.22748 | 99.84278 | 32849 ft | 458 kts | 41° |
| 2026-04-28 06:14 | 11.27390 | 99.88721 | 32848 ft | 458 kts | 41° |
| 2026-04-28 06:14 | 11.32042 | 99.93152 | 32851 ft | 458 kts | 40° |
| 2026-04-28 06:15 | 11.36677 | 99.97553 | 32849 ft | 458 kts | 40° |
| 2026-04-28 06:15 | 11.41340 | 100.01983 | 32850 ft | 459 kts | 40° |
| 2026-04-28 06:16 | 11.45897 | 100.05983 | 32844 ft | 455 kts | 31° |
| 2026-04-28 06:16 | 11.51606 | 100.08597 | 32843 ft | 449 kts | 12° |
| 2026-04-28 06:17 | 11.57738 | 100.09672 | 32842 ft | 447 kts | 7° |
| 2026-04-28 06:18 | 11.66962 | 100.11178 | 32842 ft | 448 kts | 7° |
| 2026-04-28 06:18 | 11.73119 | 100.12191 | 32842 ft | 448 kts | 7° |
| 2026-04-28 06:19 | 11.79278 | 100.13200 | 32842 ft | 449 kts | 7° |
| 2026-04-28 06:19 | 11.85448 | 100.14203 | 32845 ft | 449 kts | 6° |
| 2026-04-28 06:20 | 11.91575 | 100.15198 | 32846 ft | 449 kts | 6° |
| 2026-04-28 06:20 | 11.97747 | 100.16203 | 32846 ft | 449 kts | 6° |
| 2026-04-28 06:21 | 12.03915 | 100.17214 | 32842 ft | 449 kts | 6° |
| 2026-04-28 06:21 | 12.10086 | 100.18224 | 32847 ft | 449 kts | 6° |
| 2026-04-28 06:22 | 12.16263 | 100.19235 | 32844 ft | 449 kts | 6° |
| 2026-04-28 06:22 | 12.22434 | 100.20246 | 32844 ft | 449 kts | 6° |
| 2026-04-28 06:23 | 12.28610 | 100.21256 | 32848 ft | 449 kts | 6° |
| 2026-04-28 06:23 | 12.34741 | 100.22257 | 32847 ft | 449 kts | 6° |
| 2026-04-28 06:24 | 12.40914 | 100.23265 | 32845 ft | 449 kts | 6° |
| 2026-04-28 06:24 | 12.47087 | 100.24284 | 32850 ft | 449 kts | 6° |
| 2026-04-28 06:25 | 12.53255 | 100.25299 | 32850 ft | 449 kts | 5° |
| 2026-04-28 06:25 | 12.59442 | 100.26309 | 32578 ft | 450 kts | 5° |
| 2026-04-28 06:25 | 12.62536 | 100.26817 | 32342 ft | 451 kts | 5° |
| 2026-04-28 06:26 | 12.65636 | 100.27324 | 32101 ft | 452 kts | 5° |
| 2026-04-28 06:26 | 12.68748 | 100.27836 | 31860 ft | 453 kts | 5° |
| 2026-04-28 06:26 | 12.71855 | 100.28349 | 31413 ft | 451 kts | 6° |
| 2026-04-28 06:26 | 12.74948 | 100.28861 | 30779 ft | 449 kts | 6° |
| 2026-04-28 06:27 | 12.77984 | 100.29361 | 30171 ft | 447 kts | 6° |
| 2026-04-28 06:27 | 12.81044 | 100.29862 | 29495 ft | 445 kts | 6° |
| 2026-04-28 06:27 | 12.84096 | 100.30363 | 28892 ft | 441 kts | 6° |
| 2026-04-28 06:27 | 12.87117 | 100.30858 | 28300 ft | 438 kts | 6° |
| 2026-04-28 06:28 | 12.90117 | 100.31351 | 27703 ft | 435 kts | 6° |
| 2026-04-28 06:28 | 12.93089 | 100.31841 | 27113 ft | 432 kts | 6° |
| 2026-04-28 06:28 | 12.96051 | 100.32330 | 26532 ft | 429 kts | 6° |
| 2026-04-28 06:28 | 12.98995 | 100.32813 | 25956 ft | 427 kts | 5° |
| 2026-04-28 06:29 | 13.01935 | 100.32984 | 25394 ft | 421 kts | 356° |
| 2026-04-28 06:29 | 13.04858 | 100.32911 | 24843 ft | 419 kts | 356° |
| 2026-04-28 06:29 | 13.07762 | 100.32844 | 24318 ft | 416 kts | 357° |
| 2026-04-28 06:29 | 13.10652 | 100.32781 | 23784 ft | 414 kts | 357° |
| 2026-04-28 06:30 | 13.13521 | 100.32728 | 23259 ft | 412 kts | 358° |
| 2026-04-28 06:30 | 13.16342 | 100.32717 | 22732 ft | 409 kts | 358° |
| 2026-04-28 06:30 | 13.19174 | 100.32740 | 22258 ft | 405 kts | 359° |
| 2026-04-28 06:30 | 13.21977 | 100.32775 | 21779 ft | 401 kts | 359° |
| 2026-04-28 06:31 | 13.24757 | 100.32809 | 21392 ft | 397 kts | 359° |
| 2026-04-28 06:31 | 13.27500 | 100.32837 | 20992 ft | 394 kts | 359° |
| 2026-04-28 06:31 | 13.30230 | 100.32857 | 20599 ft | 391 kts | 359° |
| 2026-04-28 06:31 | 13.32943 | 100.32871 | 20194 ft | 388 kts | 359° |
| 2026-04-28 06:32 | 13.35637 | 100.32881 | 19821 ft | 386 kts | 359° |
| 2026-04-28 06:32 | 13.38310 | 100.32893 | 19431 ft | 384 kts | 359° |
| 2026-04-28 06:32 | 13.40980 | 100.32911 | 19045 ft | 382 kts | 359° |
| 2026-04-28 06:33 | 13.43154 | 100.32895 | 18766 ft | 379 kts | 356° |
| 2026-04-28 06:33 | 13.45776 | 100.32581 | 18344 ft | 376 kts | 347° |
| 2026-04-28 06:33 | 13.47554 | 100.32167 | 18091 ft | 374 kts | 346° |
| 2026-04-28 06:33 | 13.50085 | 100.31567 | 17669 ft | 372 kts | 345° |
| 2026-04-28 06:34 | 13.52599 | 100.30962 | 17296 ft | 370 kts | 345° |
| 2026-04-28 06:34 | 13.55062 | 100.30363 | 16931 ft | 368 kts | 345° |
| 2026-04-28 06:34 | 13.57546 | 100.29754 | 16563 ft | 366 kts | 345° |
| 2026-04-28 06:34 | 13.60019 | 100.29142 | 16184 ft | 365 kts | 345° |
| 2026-04-28 06:35 | 13.62477 | 100.28529 | 15816 ft | 363 kts | 345° |
| 2026-04-28 06:35 | 13.64930 | 100.27920 | 15447 ft | 362 kts | 345° |
| 2026-04-28 06:35 | 13.67370 | 100.27317 | 15084 ft | 360 kts | 345° |
| 2026-04-28 06:35 | 13.69793 | 100.26718 | 14712 ft | 358 kts | 345° |
| 2026-04-28 06:36 | 13.72226 | 100.26205 | 14354 ft | 358 kts | 353° |
| 2026-04-28 06:36 | 13.74707 | 100.26227 | 13987 ft | 357 kts | 7° |
| 2026-04-28 06:36 | 13.77107 | 100.26855 | 13614 ft | 357 kts | 21° |
| 2026-04-28 06:36 | 13.79299 | 100.28038 | 13233 ft | 355 kts | 31° |
| 2026-04-28 06:37 | 13.81363 | 100.29351 | 13102 ft | 343 kts | 31° |
| 2026-04-28 06:37 | 13.83342 | 100.30601 | 12972 ft | 333 kts | 31° |
| 2026-04-28 06:37 | 13.84658 | 100.31429 | 12877 ft | 326 kts | 31° |
| 2026-04-28 06:37 | 13.86795 | 100.32765 | 12600 ft | 321 kts | 31° |
| 2026-04-28 06:38 | 13.88696 | 100.33952 | 12263 ft | 319 kts | 30° |
| 2026-04-28 06:38 | 13.90583 | 100.35134 | 11913 ft | 317 kts | 31° |
| 2026-04-28 06:38 | 13.92461 | 100.36313 | 11581 ft | 315 kts | 30° |
| 2026-04-28 06:38 | 13.94326 | 100.37484 | 11250 ft | 313 kts | 31° |
| 2026-04-28 06:39 | 13.96183 | 100.38650 | 10920 ft | 312 kts | 31° |
| 2026-04-28 06:39 | 13.98024 | 100.39805 | 10690 ft | 308 kts | 31° |
| 2026-04-28 06:39 | 13.99855 | 100.40952 | 10440 ft | 308 kts | 31° |
| 2026-04-28 06:39 | 14.01680 | 100.42097 | 10137 ft | 306 kts | 31° |
| 2026-04-28 06:40 | 14.03504 | 100.43242 | 9742 ft | 308 kts | 31° |
| 2026-04-28 06:40 | 14.05332 | 100.44390 | 9363 ft | 306 kts | 31° |
| 2026-04-28 06:40 | 14.07141 | 100.45528 | 8772 ft | 303 kts | 31° |
| 2026-04-28 06:40 | 14.08910 | 100.46643 | 8556 ft | 291 kts | 31° |
| 2026-04-28 06:41 | 14.10581 | 100.47697 | 8407 ft | 274 kts | 30° |
| 2026-04-28 06:41 | 14.12178 | 100.48703 | 8069 ft | 266 kts | 30° |
| 2026-04-28 06:41 | 14.13738 | 100.49687 | 7956 ft | 261 kts | 30° |
| 2026-04-28 06:41 | 14.15288 | 100.50662 | 7822 ft | 261 kts | 30° |
| 2026-04-28 06:42 | 14.16814 | 100.51619 | 7601 ft | 260 kts | 30° |
| 2026-04-28 06:42 | 14.18339 | 100.52598 | 7352 ft | 258 kts | 36° |
| 2026-04-28 06:42 | 14.19551 | 100.53942 | 7096 ft | 258 kts | 59° |
| 2026-04-28 06:42 | 14.20157 | 100.55668 | 6805 ft | 257 kts | 83° |
| 2026-04-28 06:43 | 14.20098 | 100.57494 | 6501 ft | 256 kts | 99° |
| 2026-04-28 06:43 | 14.19848 | 100.59313 | 6187 ft | 257 kts | 98° |
| 2026-04-28 06:43 | 14.19609 | 100.61140 | 5865 ft | 257 kts | 98° |
| 2026-04-28 06:43 | 14.19377 | 100.62955 | 5554 ft | 255 kts | 98° |
| 2026-04-28 06:44 | 14.18994 | 100.64726 | 5248 ft | 253 kts | 115° |
| 2026-04-28 06:44 | 14.18007 | 100.66180 | 5046 ft | 245 kts | 140° |
| 2026-04-28 06:44 | 14.16577 | 100.67102 | 5017 ft | 243 kts | 162° |
| 2026-04-28 06:44 | 14.14971 | 100.67586 | 5015 ft | 237 kts | 166° |
| 2026-04-28 06:45 | 14.13426 | 100.68026 | 5008 ft | 223 kts | 167° |
| 2026-04-28 06:45 | 14.11981 | 100.68435 | 5009 ft | 210 kts | 166° |
| 2026-04-28 06:45 | 14.10566 | 100.68834 | 4865 ft | 212 kts | 167° |
| 2026-04-28 06:45 | 14.09162 | 100.69244 | 4603 ft | 208 kts | 160° |
| 2026-04-28 06:46 | 14.08030 | 100.70118 | 4253 ft | 206 kts | 128° |
| 2026-04-28 06:46 | 14.07357 | 100.71423 | 3874 ft | 208 kts | 107° |
| 2026-04-28 06:46 | 14.07079 | 100.72886 | 3563 ft | 209 kts | 100° |
| 2026-04-28 06:46 | 14.06887 | 100.74337 | 3232 ft | 206 kts | 99° |
| 2026-04-28 06:47 | 14.06755 | 100.75808 | 2961 ft | 206 kts | 88° |
| 2026-04-28 06:47 | 14.07274 | 100.77159 | 2721 ft | 208 kts | 47° |
| 2026-04-28 06:47 | 14.08489 | 100.77910 | 2623 ft | 211 kts | 9° |
| 2026-04-28 06:47 | 14.09909 | 100.77780 | 2620 ft | 208 kts | 336° |
| 2026-04-28 06:48 | 14.11056 | 100.76925 | 2615 ft | 204 kts | 304° |
| 2026-04-28 06:48 | 14.11615 | 100.75618 | 2620 ft | 199 kts | 274° |
| 2026-04-28 06:48 | 14.11481 | 100.74223 | 2611 ft | 197 kts | 246° |
| 2026-04-28 06:48 | 14.10742 | 100.73086 | 2623 ft | 190 kts | 224° |
| 2026-04-28 06:49 | 14.09836 | 100.72110 | 2618 ft | 188 kts | 226° |
| 2026-04-28 06:49 | 14.08944 | 100.71123 | 2617 ft | 188 kts | 225° |
| 2026-04-28 06:49 | 14.08067 | 100.70149 | 2606 ft | 187 kts | 224° |
| 2026-04-28 06:49 | 14.07020 | 100.69335 | 2443 ft | 192 kts | 206° |
| 2026-04-28 06:50 | 14.05819 | 100.68731 | 2228 ft | 191 kts | 205° |
| 2026-04-28 06:50 | 14.04641 | 100.68137 | 1994 ft | 187 kts | 205° |
| 2026-04-28 06:50 | 14.03501 | 100.67559 | 1744 ft | 173 kts | 205° |
| 2026-04-28 06:50 | 14.02491 | 100.67046 | 1562 ft | 157 kts | 205° |
| 2026-04-28 06:51 | 14.01540 | 100.66561 | 1349 ft | 150 kts | 205° |
| 2026-04-28 06:51 | 14.00605 | 100.66084 | 1178 ft | 149 kts | 206° |
| 2026-04-28 06:51 | 13.99688 | 100.65618 | 1138 ft | 146 kts | 205° |
| 2026-04-28 06:51 | 13.98786 | 100.65134 | 1140 ft | 146 kts | 208° |
| 2026-04-28 06:52 | 13.97891 | 100.64630 | 1145 ft | 145 kts | 208° |
| 2026-04-28 06:52 | 13.97000 | 100.64125 | 1042 ft | 147 kts | 209° |
| 2026-04-28 06:52 | 13.96122 | 100.63629 | 876 ft | 146 kts | 209° |
| 2026-04-28 06:52 | 13.95236 | 100.63126 | 644 ft | 144 kts | 210° |
| 2026-04-28 06:53 | 13.94356 | 100.62627 | 448 ft | 143 kts | 210° |
| 2026-04-28 06:53 | 13.93490 | 100.62139 | 298 ft | 143 kts | 208° |
| 2026-04-28 06:53 | 13.92607 | 100.61640 | 119 ft | 144 kts | 208° |
| 2026-04-28 06:53 | 13.91753 | 100.61167 | 21 ft | 129 kts | 212° |
| 2026-04-28 06:54 | 13.91100 | 100.60796 | 17 ft | 83 kts | 208° |
| 2026-04-28 06:54 | 13.90745 | 100.60594 | 20 ft | 31 kts | 209° |
| 2026-04-28 06:54 | 13.90565 | 100.60493 | 19 ft | 28 kts | 207° |
| 2026-04-28 06:54 | 13.90391 | 100.60400 | 20 ft | 28 kts | 207° |
| 2026-04-28 06:55 | 13.90222 | 100.60307 | 17 ft | 28 kts | 208° |
| 2026-04-28 06:55 | 13.90145 | 100.60180 | 17 ft | 14 kts | 289° |
| 2026-04-28 06:55 | 13.90174 | 100.60125 | 19 ft | 12 kts | 300° |
| 2026-04-28 06:55 | 13.90224 | 100.60035 | 18 ft | 10 kts | 299° |
| 2026-04-28 06:56 | 13.90254 | 100.59980 | 18 ft | 8 kts | 299° |
| 2026-04-28 06:56 | 13.90282 | 100.59928 | 18 ft | 12 kts | 299° |
| 2026-04-28 06:56 | 13.90322 | 100.59841 | 17 ft | 14 kts | 295° |
| 2026-04-28 06:56 | 13.90382 | 100.59791 | 17 ft | 11 kts | 6° |
| 2026-04-28 06:57 | 13.90446 | 100.59823 | 17 ft | 10 kts | 28° |
| 2026-04-28 06:57 | 13.90504 | 100.59856 | 17 ft | 9 kts | 28° |
| 2026-04-28 06:57 | 13.90560 | 100.59887 | 17 ft | 9 kts | 29° |
| 2026-04-28 06:57 | 13.90614 | 100.59918 | 17 ft | 10 kts | 29° |
| 2026-04-28 06:58 | 13.90681 | 100.59956 | 17 ft | 13 kts | 29° |
| 2026-04-28 06:58 | 13.90770 | 100.60006 | 19 ft | 16 kts | 29° |
| 2026-04-28 06:58 | 13.90840 | 100.60045 | 17 ft | 19 kts | 25° |
| 2026-04-28 06:58 | 13.90950 | 100.60106 | 17 ft | 16 kts | 29° |
| 2026-04-28 06:59 | 13.91031 | 100.60109 | 17 ft | 9 kts | 323° |
| 2026-04-28 06:59 | 13.91098 | 100.60102 | 17 ft | 13 kts | 30° |
| 2026-04-28 06:59 | 13.91218 | 100.60127 | 17 ft | 13 kts | 314° |
| 2026-04-28 06:59 | 13.91252 | 100.60061 | 20 ft | 7 kts | 297° |
| 2026-04-28 07:00 | 13.91242 | 100.60042 | 17 ft | 5 kts | 204° |
| 2026-04-28 07:00 | 13.91201 | 100.60020 | 17 ft | 6 kts | 208° |
| 2026-04-28 07:00 | 13.91192 | 100.60015 | 17 ft | 0 kts | 208° |
| 2026-04-28 07:00 | 13.91190 | 100.60014 | 17 ft | 0 kts | 208° |